This is the latest recevied weather packets stored in our database for station/object F1JRN-13. If no packets are shown the sender has not sent any weather packets the latest 10 day(s).
| Time | Temp. | Humidity | Pressure | Rain* | Wind** | Luminosity | Snow |
|---|---|---|---|---|---|---|---|
| 1777469500 | 25° C | 50% | 1004.6 hPa | 0 mm | - | - | - |
| 1777468420 | 23.89° C | 49% | 1004.6 hPa | 0 mm | - | - | - |
| 1777461400 | 22.78° C | 51% | 1004.3 hPa | 0 mm | - | - | - |
| 1777460321 | 22.22° C | 55% | 1004.3 hPa | 0 mm | - | - | - |
| 1777457621 | 22.22° C | 53% | 1004.7 hPa | 0 mm | - | - | - |
| 1777453301 | 20° C | 61% | 1004.8 hPa | 0 mm | - | - | - |
| 1777445201 | 16.11° C | 79% | 1004.7 hPa | 0 mm | - | - | - |
| 1777443041 | 15.56° C | 88% | 1004.7 hPa | 0 mm | - | - | - |
| 1777438181 | 13.89° C | 89% | 1004.4 hPa | 0 mm | - | - | - |
| 1777434941 | 13.89° C | 89% | 1004.6 hPa | 0 mm | - | - | - |
| 1777434401 | 13.89° C | 89% | 1004.7 hPa | 0 mm | - | - | - |
| 1777422521 | 13.33° C | 84% | 1005.3 hPa | 0 mm | - | - | - |
| 1777420902 | 13.89° C | 83% | 1005.5 hPa | 0 mm | - | - | - |
| 1777419821 | 13.89° C | 82% | 1005.8 hPa | 0 mm | - | - | - |
| 1777414421 | 13.89° C | 80% | 1006.1 hPa | 0 mm | - | - | - |
| 1777409561 | 13.89° C | 78% | 1006.1 hPa | 0 mm | - | - | - |
| 1777404161 | 15.56° C | 75% | 1005.5 hPa | 0 mm | - | - | - |
| 1777401461 | 17.22° C | 71% | 1005.9 hPa | 0 mm | - | - | - |
| 1777398761 | 18.89° C | 68% | 1005.8 hPa | 0 mm | - | - | - |
| 1777397511 | 17.78° C | 65% | 1005.9 hPa | 0 mm | - | - | - |
| 1777393732 | 18.89° C | 62% | 1006.2 hPa | 0 mm | - | - | - |
| 1777392652 | 18.89° C | 63% | 1006.2 hPa | 0 mm | - | - | - |
| 1777391572 | 19.44° C | 62% | 1005.9 hPa | 0 mm | - | - | - |
| 1777388872 | 20.56° C | 63% | 1006.2 hPa | 0 mm | - | - | - |
| 1777386712 | 20° C | 62% | 1006.7 hPa | 0 mm | - | - | - |
* Rain latest hour (hover to see other rain measurements)
** Current wind speed in m/s (hover to see current wind gust speed)